sensor_id;sensor_type;location;lat;lon;timestamp;temperature;humidity
16976;DHT22;8604;48.148;-1.786;2022-10-16T00:01:40;13.90;99.90
16976;DHT22;8604;48.148;-1.786;2022-10-16T00:04:10;14.00;99.90
16976;DHT22;8604;48.148;-1.786;2022-10-16T00:06:38;14.00;99.90
16976;DHT22;8604;48.148;-1.786;2022-10-16T00:09:07;14.00;99.90
16976;DHT22;8604;48.148;-1.786;2022-10-16T00:11:38;13.90;99.90
16976;DHT22;8604;48.148;-1.786;2022-10-16T00:14:09;13.90;99.90
16976;DHT22;8604;48.148;-1.786;2022-10-16T00:16:38;13.90;99.90
16976;DHT22;8604;48.148;-1.786;2022-10-16T00:19:07;13.90;99.90
16976;DHT22;8604;48.148;-1.786;2022-10-16T00:21:36;13.90;99.90
16976;DHT22;8604;48.148;-1.786;2022-10-16T00:24:23;13.90;99.90
16976;DHT22;8604;48.148;-1.786;2022-10-16T00:26:52;13.90;99.90
16976;DHT22;8604;48.148;-1.786;2022-10-16T00:29:20;13.90;99.90
16976;DHT22;8604;48.148;-1.786;2022-10-16T00:31:49;13.90;99.90
16976;DHT22;8604;48.148;-1.786;2022-10-16T00:34:17;13.90;99.90
16976;DHT22;8604;48.148;-1.786;2022-10-16T00:36:48;13.90;99.90
16976;DHT22;8604;48.148;-1.786;2022-10-16T00:39:16;13.90;99.90
16976;DHT22;8604;48.148;-1.786;2022-10-16T00:41:45;13.90;99.90
16976;DHT22;8604;48.148;-1.786;2022-10-16T00:44:43;13.90;99.90
16976;DHT22;8604;48.148;-1.786;2022-10-16T00:47:17;13.90;99.90
16976;DHT22;8604;48.148;-1.786;2022-10-16T00:52:34;13.90;99.90
16976;DHT22;8604;48.148;-1.786;2022-10-16T00:55:03;13.90;99.90
16976;DHT22;8604;48.148;-1.786;2022-10-16T00:57:32;13.90;99.90
16976;DHT22;8604;48.148;-1.786;2022-10-16T01:00:03;13.90;99.90
16976;DHT22;8604;48.148;-1.786;2022-10-16T01:02:32;13.90;99.90
16976;DHT22;8604;48.148;-1.786;2022-10-16T01:05:18;13.90;99.90
16976;DHT22;8604;48.148;-1.786;2022-10-16T01:07:56;13.90;99.90
16976;DHT22;8604;48.148;-1.786;2022-10-16T01:10:30;13.90;99.90
16976;DHT22;8604;48.148;-1.786;2022-10-16T01:13:05;13.90;99.90
16976;DHT22;8604;48.148;-1.786;2022-10-16T01:15:38;13.90;99.90
16976;DHT22;8604;48.148;-1.786;2022-10-16T01:18:14;13.90;99.90
16976;DHT22;8604;48.148;-1.786;2022-10-16T01:20:47;13.90;99.90
16976;DHT22;8604;48.148;-1.786;2022-10-16T01:23:29;13.90;99.90
16976;DHT22;8604;48.148;-1.786;2022-10-16T01:26:24;13.90;99.90
16976;DHT22;8604;48.148;-1.786;2022-10-16T01:29:04;13.90;99.90
16976;DHT22;8604;48.148;-1.786;2022-10-16T01:31:41;13.90;99.90
16976;DHT22;8604;48.148;-1.786;2022-10-16T01:34:18;13.90;99.90
16976;DHT22;8604;48.148;-1.786;2022-10-16T01:37:09;13.90;99.90
16976;DHT22;8604;48.148;-1.786;2022-10-16T01:39:42;13.80;99.90
16976;DHT22;8604;48.148;-1.786;2022-10-16T01:42:19;13.80;99.90
16976;DHT22;8604;48.148;-1.786;2022-10-16T01:44:51;13.80;99.90
16976;DHT22;8604;48.148;-1.786;2022-10-16T01:47:23;13.80;99.90
16976;DHT22;8604;48.148;-1.786;2022-10-16T01:49:54;13.80;99.90
16976;DHT22;8604;48.148;-1.786;2022-10-16T01:52:25;13.80;99.90
16976;DHT22;8604;48.148;-1.786;2022-10-16T01:54:56;13.80;99.90
16976;DHT22;8604;48.148;-1.786;2022-10-16T01:57:27;13.80;99.90
16976;DHT22;8604;48.148;-1.786;2022-10-16T02:00:01;13.80;99.90
16976;DHT22;8604;48.148;-1.786;2022-10-16T02:02:39;13.80;99.90
16976;DHT22;8604;48.148;-1.786;2022-10-16T02:05:12;13.80;99.90
16976;DHT22;8604;48.148;-1.786;2022-10-16T02:07:43;13.80;99.90
16976;DHT22;8604;48.148;-1.786;2022-10-16T02:10:12;13.80;99.90
16976;DHT22;8604;48.148;-1.786;2022-10-16T02:12:44;13.80;99.90
16976;DHT22;8604;48.148;-1.786;2022-10-16T02:15:15;13.80;99.90
16976;DHT22;8604;48.148;-1.786;2022-10-16T02:17:44;13.80;99.90
16976;DHT22;8604;48.148;-1.786;2022-10-16T02:20:12;13.80;99.90
16976;DHT22;8604;48.148;-1.786;2022-10-16T02:22:44;13.70;99.90
16976;DHT22;8604;48.148;-1.786;2022-10-16T02:25:18;13.80;99.90
16976;DHT22;8604;48.148;-1.786;2022-10-16T02:27:54;13.80;99.90
16976;DHT22;8604;48.148;-1.786;2022-10-16T02:30:28;13.70;99.90
16976;DHT22;8604;48.148;-1.786;2022-10-16T02:33:00;13.80;99.90
16976;DHT22;8604;48.148;-1.786;2022-10-16T02:35:30;13.70;99.90
16976;DHT22;8604;48.148;-1.786;2022-10-16T02:37:59;13.70;99.90
16976;DHT22;8604;48.148;-1.786;2022-10-16T02:40:28;13.70;99.90
16976;DHT22;8604;48.148;-1.786;2022-10-16T02:42:57;13.70;99.90
16976;DHT22;8604;48.148;-1.786;2022-10-16T02:45:27;13.60;99.90
16976;DHT22;8604;48.148;-1.786;2022-10-16T02:47:56;13.60;99.90
16976;DHT22;8604;48.148;-1.786;2022-10-16T02:50:24;13.60;99.90
16976;DHT22;8604;48.148;-1.786;2022-10-16T02:52:53;13.60;99.90
16976;DHT22;8604;48.148;-1.786;2022-10-16T02:55:22;13.50;99.90
16976;DHT22;8604;48.148;-1.786;2022-10-16T02:57:50;13.50;99.90
16976;DHT22;8604;48.148;-1.786;2022-10-16T03:00:19;13.50;99.90
16976;DHT22;8604;48.148;-1.786;2022-10-16T03:02:49;13.50;99.90
16976;DHT22;8604;48.148;-1.786;2022-10-16T03:05:18;13.40;99.90
16976;DHT22;8604;48.148;-1.786;2022-10-16T03:07:46;13.40;99.90
16976;DHT22;8604;48.148;-1.786;2022-10-16T03:10:28;13.40;99.90
16976;DHT22;8604;48.148;-1.786;2022-10-16T03:12:57;13.30;99.90
16976;DHT22;8604;48.148;-1.786;2022-10-16T03:15:25;13.30;99.90
16976;DHT22;8604;48.148;-1.786;2022-10-16T03:17:57;13.30;99.90
16976;DHT22;8604;48.148;-1.786;2022-10-16T03:20:26;13.30;99.90
16976;DHT22;8604;48.148;-1.786;2022-10-16T03:22:55;13.30;99.90
16976;DHT22;8604;48.148;-1.786;2022-10-16T03:25:23;13.30;99.90
16976;DHT22;8604;48.148;-1.786;2022-10-16T03:27:52;13.30;99.90
16976;DHT22;8604;48.148;-1.786;2022-10-16T03:30:20;13.40;99.90
16976;DHT22;8604;48.148;-1.786;2022-10-16T03:32:49;13.40;99.90
16976;DHT22;8604;48.148;-1.786;2022-10-16T03:35:23;13.40;99.90
16976;DHT22;8604;48.148;-1.786;2022-10-16T03:37:51;13.40;99.90
16976;DHT22;8604;48.148;-1.786;2022-10-16T03:40:20;13.40;99.90
16976;DHT22;8604;48.148;-1.786;2022-10-16T03:42:48;13.50;99.90
16976;DHT22;8604;48.148;-1.786;2022-10-16T03:45:17;13.50;99.90
16976;DHT22;8604;48.148;-1.786;2022-10-16T03:47:45;13.50;99.90
16976;DHT22;8604;48.148;-1.786;2022-10-16T03:50:14;13.50;99.90
16976;DHT22;8604;48.148;-1.786;2022-10-16T03:52:44;13.50;99.90
16976;DHT22;8604;48.148;-1.786;2022-10-16T03:55:13;13.60;99.90
16976;DHT22;8604;48.148;-1.786;2022-10-16T03:57:45;13.60;99.90
16976;DHT22;8604;48.148;-1.786;2022-10-16T04:00:14;13.60;99.90
16976;DHT22;8604;48.148;-1.786;2022-10-16T04:02:42;13.60;99.90
16976;DHT22;8604;48.148;-1.786;2022-10-16T04:05:11;13.60;99.90
16976;DHT22;8604;48.148;-1.786;2022-10-16T04:07:45;13.60;99.90
16976;DHT22;8604;48.148;-1.786;2022-10-16T04:10:18;13.60;99.90
16976;DHT22;8604;48.148;-1.786;2022-10-16T04:12:47;13.60;99.90
16976;DHT22;8604;48.148;-1.786;2022-10-16T04:15:16;13.70;99.90
16976;DHT22;8604;48.148;-1.786;2022-10-16T04:17:45;13.70;99.90
16976;DHT22;8604;48.148;-1.786;2022-10-16T04:20:13;13.70;99.90
16976;DHT22;8604;48.148;-1.786;2022-10-16T04:22:42;13.70;99.90
16976;DHT22;8604;48.148;-1.786;2022-10-16T04:25:12;13.80;99.90
16976;DHT22;8604;48.148;-1.786;2022-10-16T04:27:40;13.80;99.90
16976;DHT22;8604;48.148;-1.786;2022-10-16T04:30:12;13.80;99.90
16976;DHT22;8604;48.148;-1.786;2022-10-16T04:32:41;13.80;99.90
16976;DHT22;8604;48.148;-1.786;2022-10-16T04:35:10;13.80;99.90
16976;DHT22;8604;48.148;-1.786;2022-10-16T04:37:38;13.90;99.90
16976;DHT22;8604;48.148;-1.786;2022-10-16T04:40:08;13.90;99.90
16976;DHT22;8604;48.148;-1.786;2022-10-16T04:42:38;13.90;99.90
16976;DHT22;8604;48.148;-1.786;2022-10-16T04:45:08;14.00;99.90
16976;DHT22;8604;48.148;-1.786;2022-10-16T04:47:42;14.00;99.90
16976;DHT22;8604;48.148;-1.786;2022-10-16T04:50:11;14.00;99.90
16976;DHT22;8604;48.148;-1.786;2022-10-16T04:52:40;14.00;99.90
16976;DHT22;8604;48.148;-1.786;2022-10-16T04:55:09;14.00;99.90
16976;DHT22;8604;48.148;-1.786;2022-10-16T04:57:39;14.10;99.90
16976;DHT22;8604;48.148;-1.786;2022-10-16T05:00:09;14.10;99.90
16976;DHT22;8604;48.148;-1.786;2022-10-16T05:02:38;14.10;99.90
16976;DHT22;8604;48.148;-1.786;2022-10-16T05:05:07;14.10;99.90
16976;DHT22;8604;48.148;-1.786;2022-10-16T05:07:56;14.10;99.90
16976;DHT22;8604;48.148;-1.786;2022-10-16T05:10:24;14.10;99.90
16976;DHT22;8604;48.148;-1.786;2022-10-16T05:12:54;14.20;99.90
16976;DHT22;8604;48.148;-1.786;2022-10-16T05:15:22;14.10;99.90
16976;DHT22;8604;48.148;-1.786;2022-10-16T05:17:53;14.20;99.90
16976;DHT22;8604;48.148;-1.786;2022-10-16T05:20:21;14.20;99.90
16976;DHT22;8604;48.148;-1.786;2022-10-16T05:22:50;14.20;99.90
16976;DHT22;8604;48.148;-1.786;2022-10-16T05:25:19;14.20;99.90
16976;DHT22;8604;48.148;-1.786;2022-10-16T05:27:47;14.20;99.90
16976;DHT22;8604;48.148;-1.786;2022-10-16T05:30:18;14.20;99.90
16976;DHT22;8604;48.148;-1.786;2022-10-16T05:32:48;14.20;99.90
16976;DHT22;8604;48.148;-1.786;2022-10-16T05:35:17;14.20;99.90
16976;DHT22;8604;48.148;-1.786;2022-10-16T05:37:47;14.20;99.90
16976;DHT22;8604;48.148;-1.786;2022-10-16T05:40:16;14.20;99.90
16976;DHT22;8604;48.148;-1.786;2022-10-16T05:42:45;14.30;99.90
16976;DHT22;8604;48.148;-1.786;2022-10-16T21:31:43;16.20;99.90
16976;DHT22;8604;48.148;-1.786;2022-10-16T21:34:12;16.10;99.90
16976;DHT22;8604;48.148;-1.786;2022-10-16T21:36:41;16.10;99.90
16976;DHT22;8604;48.148;-1.786;2022-10-16T21:39:11;16.10;99.90
16976;DHT22;8604;48.148;-1.786;2022-10-16T21:41:44;16.10;99.90
16976;DHT22;8604;48.148;-1.786;2022-10-16T21:44:17;16.10;99.90
16976;DHT22;8604;48.148;-1.786;2022-10-16T21:46:49;16.10;99.90
16976;DHT22;8604;48.148;-1.786;2022-10-16T21:49:18;16.10;99.90
16976;DHT22;8604;48.148;-1.786;2022-10-16T21:51:47;16.10;99.90
16976;DHT22;8604;48.148;-1.786;2022-10-16T21:54:18;16.10;99.90
16976;DHT22;8604;48.148;-1.786;2022-10-16T21:56:46;16.10;99.90
16976;DHT22;8604;48.148;-1.786;2022-10-16T21:59:35;16.00;99.90
16976;DHT22;8604;48.148;-1.786;2022-10-16T22:02:05;16.00;99.90
16976;DHT22;8604;48.148;-1.786;2022-10-16T22:04:34;16.00;99.90
16976;DHT22;8604;48.148;-1.786;2022-10-16T22:07:02;16.00;99.90
16976;DHT22;8604;48.148;-1.786;2022-10-16T22:09:31;15.90;99.90
16976;DHT22;8604;48.148;-1.786;2022-10-16T22:11:59;15.90;99.90
16976;DHT22;8604;48.148;-1.786;2022-10-16T22:14:27;15.90;99.90
16976;DHT22;8604;48.148;-1.786;2022-10-16T22:16:56;15.90;99.90
16976;DHT22;8604;48.148;-1.786;2022-10-16T22:19:29;15.90;99.90
16976;DHT22;8604;48.148;-1.786;2022-10-16T22:22:05;15.90;99.90
16976;DHT22;8604;48.148;-1.786;2022-10-16T22:24:34;15.90;99.90
16976;DHT22;8604;48.148;-1.786;2022-10-16T22:27:03;15.90;99.90
16976;DHT22;8604;48.148;-1.786;2022-10-16T22:29:31;15.90;99.90
16976;DHT22;8604;48.148;-1.786;2022-10-16T22:32:00;15.80;99.90
16976;DHT22;8604;48.148;-1.786;2022-10-16T22:34:32;15.80;99.90
16976;DHT22;8604;48.148;-1.786;2022-10-16T22:37:00;15.80;99.90
16976;DHT22;8604;48.148;-1.786;2022-10-16T22:39:29;15.80;99.90
16976;DHT22;8604;48.148;-1.786;2022-10-16T22:41:58;15.80;99.90
16976;DHT22;8604;48.148;-1.786;2022-10-16T22:44:28;15.80;99.90
16976;DHT22;8604;48.148;-1.786;2022-10-16T22:47:17;15.80;99.90
16976;DHT22;8604;48.148;-1.786;2022-10-16T22:49:47;15.70;99.90
16976;DHT22;8604;48.148;-1.786;2022-10-16T22:52:15;15.70;99.90
16976;DHT22;8604;48.148;-1.786;2022-10-16T22:54:44;15.70;99.90
16976;DHT22;8604;48.148;-1.786;2022-10-16T22:57:13;15.70;99.90
16976;DHT22;8604;48.148;-1.786;2022-10-16T22:59:41;15.70;99.90
16976;DHT22;8604;48.148;-1.786;2022-10-16T23:02:09;15.70;99.90
16976;DHT22;8604;48.148;-1.786;2022-10-16T23:04:38;15.70;99.90
16976;DHT22;8604;48.148;-1.786;2022-10-16T23:07:08;15.70;99.90
16976;DHT22;8604;48.148;-1.786;2022-10-16T23:09:36;15.70;99.90
16976;DHT22;8604;48.148;-1.786;2022-10-16T23:12:05;15.60;99.90
16976;DHT22;8604;48.148;-1.786;2022-10-16T23:14:33;15.60;99.90
16976;DHT22;8604;48.148;-1.786;2022-10-16T23:17:02;15.60;99.90
16976;DHT22;8604;48.148;-1.786;2022-10-16T23:19:30;15.60;99.90
16976;DHT22;8604;48.148;-1.786;2022-10-16T23:21:58;15.60;99.90
16976;DHT22;8604;48.148;-1.786;2022-10-16T23:24:30;15.60;99.90
16976;DHT22;8604;48.148;-1.786;2022-10-16T23:26:59;15.60;99.90
16976;DHT22;8604;48.148;-1.786;2022-10-16T23:29:28;15.60;99.90
16976;DHT22;8604;48.148;-1.786;2022-10-16T23:31:56;15.60;99.90
16976;DHT22;8604;48.148;-1.786;2022-10-16T23:34:25;15.60;99.90
16976;DHT22;8604;48.148;-1.786;2022-10-16T23:36:54;15.60;99.90
16976;DHT22;8604;48.148;-1.786;2022-10-16T23:39:22;15.60;99.90
16976;DHT22;8604;48.148;-1.786;2022-10-16T23:41:52;15.60;99.90
16976;DHT22;8604;48.148;-1.786;2022-10-16T23:44:21;15.60;99.90
16976;DHT22;8604;48.148;-1.786;2022-10-16T23:46:49;15.60;99.90
16976;DHT22;8604;48.148;-1.786;2022-10-16T23:49:17;15.60;99.90
16976;DHT22;8604;48.148;-1.786;2022-10-16T23:51:46;15.60;99.90
16976;DHT22;8604;48.148;-1.786;2022-10-16T23:54:14;15.50;99.90
16976;DHT22;8604;48.148;-1.786;2022-10-16T23:56:43;15.50;99.90
16976;DHT22;8604;48.148;-1.786;2022-10-16T23:59:23;15.50;99.90
